Time;durP1;ratioP1;P1;durP2;ratioP2;P2;SDS_P1;SDS_P2;PMS_P1;PMS_P2;Temp;Humidity;BMP_temperature;BMP_pressure;BME280_temperature;BME280_humidity;BME280_pressure;Samples;Min_cycle;Max_cycle;Signal;HPM_P1;HPM_P2
2022/05/11 00:01:08;;;;;;;5.40;2.10;;;13.50;99.90;;;;;;5023462;28;20030;-70
2022/05/11 00:03:34;;;;;;;4.38;2.00;;;13.50;99.90;;;;;;5022024;28;20544;-71
2022/05/11 00:06:00;;;;;;;3.63;2.03;;;13.40;99.90;;;;;;5005819;28;20029;-72
2022/05/11 00:08:26;;;;;;;3.97;2.13;;;13.40;99.90;;;;;;5022648;28;20025;-72
2022/05/11 00:10:51;;;;;;;4.05;1.80;;;13.30;99.90;;;;;;5005601;28;20033;-70
2022/05/11 00:13:17;;;;;;;2.92;1.35;;;13.40;99.90;;;;;;5023121;28;20418;-71
2022/05/11 00:15:43;;;;;;;3.17;1.25;;;13.30;99.90;;;;;;5023288;28;20053;-69
2022/05/11 00:18:10;;;;;;;10.32;1.40;;;13.30;99.90;;;;;;5021957;28;20044;-71
2022/05/11 00:20:37;;;;;;;4.45;1.70;;;13.30;99.90;;;;;;5022969;28;20018;-71
2022/05/11 00:23:03;;;;;;;2.67;1.52;;;13.40;99.90;;;;;;5022704;28;20072;-69
2022/05/11 00:25:29;;;;;;;3.13;1.63;;;13.40;99.90;;;;;;5022799;28;20075;-71
2022/05/11 00:27:57;;;;;;;3.30;1.85;;;13.40;99.90;;;;;;5022851;28;20022;-70
2022/05/11 00:30:25;;;;;;;5.78;1.80;;;13.40;99.90;;;;;;5023013;28;20037;-71
2022/05/11 00:32:57;;;;;;;3.95;1.77;;;13.40;99.90;;;;;;5022403;28;20045;-71
2022/05/11 00:35:23;;;;;;;2.13;1.30;;;13.40;99.90;;;;;;5022773;28;20557;-71
2022/05/11 00:37:49;;;;;;;2.00;1.08;;;13.40;99.90;;;;;;5022755;28;20021;-70
2022/05/11 00:40:17;;;;;;;5.25;2.03;;;13.40;99.90;;;;;;5022453;28;20428;-71
2022/05/11 00:42:43;;;;;;;5.07;2.33;;;13.40;99.90;;;;;;5022912;28;20389;-70
2022/05/11 00:45:09;;;;;;;4.57;1.88;;;13.40;99.90;;;;;;5022746;28;20070;-70
2022/05/11 00:47:44;;;;;;;3.42;1.60;;;13.40;99.90;;;;;;5004577;28;20114;-72
2022/05/11 00:50:15;;;;;;;4.18;1.40;;;13.40;99.90;;;;;;5022765;28;20080;-70
2022/05/11 00:52:48;;;;;;;5.18;2.05;;;13.40;99.90;;;;;;5022222;28;20034;-69
2022/05/11 00:55:24;;;;;;;2.05;1.25;;;13.40;99.90;;;;;;5022109;28;20018;-70
2022/05/11 00:58:34;;;;;;;3.40;1.50;;;13.40;99.90;;;;;;5022194;28;20026;-70
2022/05/11 01:01:00;;;;;;;4.00;2.28;;;13.40;99.90;;;;;;5021020;28;20034;-70
2022/05/11 01:03:35;;;;;;;3.22;1.58;;;13.50;99.90;;;;;;5022388;28;20497;-72
2022/05/11 01:06:01;;;;;;;2.88;1.58;;;13.40;99.90;;;;;;5022278;28;20053;-71
2022/05/11 01:08:28;;;;;;;9.80;2.22;;;13.40;99.90;;;;;;5025486;28;20080;-71
2022/05/11 01:10:54;;;;;;;3.67;1.92;;;13.40;99.90;;;;;;5026541;28;20033;-72
2022/05/11 01:13:21;;;;;;;3.95;1.95;;;13.40;99.90;;;;;;5026388;28;20065;-70
2022/05/11 01:15:49;;;;;;;3.40;2.28;;;13.40;99.90;;;;;;5026333;28;20028;-72
2022/05/11 01:18:16;;;;;;;2.58;1.73;;;13.30;99.90;;;;;;5025966;28;20021;-71
2022/05/11 01:20:44;;;;;;;5.38;2.10;;;13.30;99.90;;;;;;5026208;28;20026;-71
2022/05/11 01:23:10;;;;;;;4.10;1.70;;;13.30;99.90;;;;;;5025978;28;20022;-71
2022/05/11 01:25:35;;;;;;;7.40;1.80;;;13.30;99.90;;;;;;5026324;28;20101;-70
2022/05/11 01:28:11;;;;;;;2.58;1.38;;;13.30;99.90;;;;;;5025992;28;20041;-71
2022/05/11 01:30:38;;;;;;;4.55;2.33;;;13.30;99.90;;;;;;5026287;28;20040;-71
2022/05/11 01:33:06;;;;;;;4.47;2.13;;;13.40;99.90;;;;;;5008161;28;20430;-70
2022/05/11 01:35:42;;;;;;;6.65;2.45;;;13.40;99.90;;;;;;5007970;28;20017;-69
2022/05/11 01:38:37;;;;;;;4.35;2.28;;;13.30;99.90;;;;;;5025646;28;20018;-70
2022/05/11 01:41:03;;;;;;;3.42;1.88;;;13.30;99.90;;;;;;5025793;28;20032;-71
2022/05/11 01:43:33;;;;;;;2.83;1.83;;;13.30;99.90;;;;;;5007926;28;20033;-70
2022/05/11 01:45:59;;;;;;;2.65;1.83;;;13.30;99.90;;;;;;5026088;28;20029;-70
2022/05/11 01:48:26;;;;;;;3.03;1.83;;;13.30;99.90;;;;;;5025466;28;20034;-70
2022/05/11 01:50:52;;;;;;;6.03;2.13;;;13.30;99.90;;;;;;5025246;28;20101;-70
2022/05/11 01:53:18;;;;;;;4.90;2.22;;;13.30;99.90;;;;;;5025814;28;20042;-68
2022/05/11 01:55:43;;;;;;;3.22;2.00;;;13.30;99.90;;;;;;5025034;28;20149;-69
2022/05/11 01:58:11;;;;;;;3.10;2.22;;;13.30;99.90;;;;;;5025582;28;20489;-69
2022/05/11 02:00:39;;;;;;;6.28;2.50;;;13.30;99.90;;;;;;5025137;28;20018;-70
2022/05/11 02:03:06;;;;;;;5.30;2.38;;;13.30;99.90;;;;;;5024776;28;20058;-71
2022/05/11 02:08:17;;;;;;;4.10;2.08;;;13.30;99.90;;;;;;5025194;28;20032;-68
2022/05/11 02:10:42;;;;;;;3.83;2.08;;;13.30;99.90;;;;;;5025134;28;20049;-68
2022/05/11 02:13:08;;;;;;;3.83;2.25;;;13.30;99.90;;;;;;5025484;28;20025;-69
2022/05/11 02:15:36;;;;;;;6.78;2.28;;;13.30;99.90;;;;;;5025317;28;20465;-70
2022/05/11 02:18:02;;;;;;;7.80;2.55;;;13.30;99.90;;;;;;5007284;28;20030;-69
2022/05/11 02:20:28;;;;;;;3.40;1.77;;;13.30;99.90;;;;;;5024119;28;20042;-71
2022/05/11 02:22:54;;;;;;;4.03;1.95;;;13.30;99.90;;;;;;5025283;28;20038;-69
2022/05/11 02:25:20;;;;;;;4.45;2.15;;;13.30;99.90;;;;;;5024550;28;20064;-70
2022/05/11 02:27:47;;;;;;;3.85;2.15;;;13.30;99.90;;;;;;5025172;28;20037;-69
2022/05/11 02:30:33;;;;;;;2.67;1.50;;;13.20;99.90;;;;;;5024802;28;20122;-70
2022/05/11 02:32:59;;;;;;;7.65;3.03;;;13.20;99.90;;;;;;5024730;28;20425;-69
2022/05/11 02:35:26;;;;;;;4.18;2.33;;;13.20;99.90;;;;;;5025272;28;20041;-70
2022/05/11 02:37:59;;;;;;;14.82;2.70;;;13.20;99.90;;;;;;5024302;28;20022;-70
2022/05/11 02:40:32;;;;;;;3.20;2.03;;;13.10;99.90;;;;;;5024687;28;20466;-70
2022/05/11 02:43:01;;;;;;;3.80;1.90;;;13.10;99.90;;;;;;5024816;28;20018;-69
2022/05/11 02:45:28;;;;;;;2.90;1.95;;;13.10;99.90;;;;;;5024258;28;20112;-70
2022/05/11 02:47:56;;;;;;;4.88;2.70;;;13.00;99.90;;;;;;5024600;28;20030;-69
2022/05/11 02:50:29;;;;;;;4.28;2.45;;;13.00;99.90;;;;;;5024594;28;20086;-70
2022/05/11 02:52:55;;;;;;;4.78;2.75;;;13.00;99.90;;;;;;5023642;28;20173;-70
2022/05/11 02:55:21;;;;;;;4.10;2.45;;;13.00;99.90;;;;;;5024618;28;20029;-70
2022/05/11 02:57:47;;;;;;;4.30;2.40;;;12.90;99.90;;;;;;5024737;28;21030;-70
2022/05/11 03:00:17;;;;;;;7.43;3.33;;;12.90;99.90;;;;;;5024028;28;20026;-70
2022/05/11 03:02:43;;;;;;;7.65;2.58;;;13.00;99.90;;;;;;5024086;28;20058;-69
2022/05/11 03:05:11;;;;;;;4.30;2.13;;;13.00;99.90;;;;;;5005870;28;20413;-70
2022/05/11 03:07:37;;;;;;;4.45;2.10;;;13.00;99.90;;;;;;5024191;28;20014;-69
2022/05/11 03:10:04;;;;;;;7.57;3.22;;;13.00;99.90;;;;;;5024284;28;20057;-70
2022/05/11 03:12:31;;;;;;;5.65;2.85;;;13.00;99.90;;;;;;5023468;28;20045;-69
2022/05/11 03:14:58;;;;;;;4.30;2.63;;;13.00;99.90;;;;;;5024267;28;20044;-70
2022/05/11 03:17:25;;;;;;;5.45;2.28;;;13.00;99.90;;;;;;5024296;28;20494;-70
2022/05/11 03:19:51;;;;;;;10.32;2.97;;;13.00;99.90;;;;;;5024048;28;20030;-69
2022/05/11 03:22:17;;;;;;;4.22;2.65;;;13.00;99.90;;;;;;5023876;28;20029;-70
2022/05/11 03:24:43;;;;;;;5.30;3.08;;;12.90;99.90;;;;;;5024206;28;20036;-69
2022/05/11 03:27:09;;;;;;;7.97;3.03;;;13.00;99.90;;;;;;5023773;28;20045;-70
2022/05/11 03:29:35;;;;;;;10.40;2.60;;;13.00;99.90;;;;;;5023607;28;20022;-69
2022/05/11 03:34:47;;;;;;;3.83;2.47;;;13.00;99.90;;;;;;5023304;28;20065;-70
2022/05/11 03:37:18;;;;;;;6.22;2.88;;;13.00;99.90;;;;;;5023756;28;20052;-69
2022/05/11 03:39:44;;;;;;;5.95;2.63;;;13.00;99.90;;;;;;5023582;28;20374;-68
2022/05/11 03:42:16;;;;;;;4.80;2.00;;;13.10;99.90;;;;;;5023587;28;20046;-69
2022/05/11 03:44:41;;;;;;;4.45;2.72;;;13.10;99.90;;;;;;5023635;28;20030;-69
2022/05/11 03:47:07;;;;;;;5.03;2.28;;;13.10;99.90;;;;;;5023630;28;20072;-69
2022/05/11 03:49:34;;;;;;;8.45;2.72;;;13.10;99.90;;;;;;5023492;28;20045;-69
2022/05/11 03:52:01;;;;;;;4.50;2.50;;;13.10;99.90;;;;;;5023304;28;20045;-71
2022/05/11 03:54:26;;;;;;;6.88;2.78;;;13.10;99.90;;;;;;5023497;28;20040;-69
2022/05/11 03:56:52;;;;;;;4.43;2.67;;;13.20;99.90;;;;;;5023087;28;20026;-69
2022/05/11 03:59:18;;;;;;;4.78;2.25;;;13.10;99.90;;;;;;5022134;28;20037;-68
2022/05/11 04:01:44;;;;;;;8.32;2.42;;;13.10;99.90;;;;;;5022261;28;20113;-68
2022/05/11 04:04:09;;;;;;;7.78;3.17;;;13.10;99.90;;;;;;5023057;28;20453;-68
2022/05/11 04:06:35;;;;;;;5.20;2.80;;;13.10;99.90;;;;;;5023108;28;20022;-70
2022/05/11 04:09:01;;;;;;;4.93;2.95;;;13.10;99.90;;;;;;5023351;28;20029;-69
2022/05/11 04:11:28;;;;;;;4.90;2.58;;;13.10;99.90;;;;;;5005686;28;20069;-69
2022/05/11 04:13:55;;;;;;;13.50;3.28;;;13.10;99.90;;;;;;5023452;28;20484;-69
2022/05/11 04:16:22;;;;;;;5.68;3.00;;;13.10;99.90;;;;;;5004730;28;20030;-70
2022/05/11 04:18:48;;;;;;;9.55;2.92;;;13.10;99.90;;;;;;5023042;28;20078;-69
2022/05/11 04:21:14;;;;;;;5.03;3.25;;;13.10;99.90;;;;;;5022955;28;20025;-68
2022/05/11 04:23:40;;;;;;;5.43;3.05;;;13.10;99.90;;;;;;5021927;28;20022;-69
2022/05/11 04:26:11;;;;;;;7.53;3.75;;;13.00;99.90;;;;;;5023042;28;20033;-69
2022/05/11 04:28:37;;;;;;;6.18;3.30;;;13.10;99.90;;;;;;5022435;28;20029;-70
2022/05/11 04:31:05;;;;;;;7.40;3.10;;;13.10;99.90;;;;;;5022656;28;20105;-70
2022/05/11 04:33:31;;;;;;;6.57;3.17;;;13.10;99.90;;;;;;5022910;28;20067;-70
2022/05/11 04:35:56;;;;;;;5.90;3.38;;;13.00;99.90;;;;;;5022189;28;20038;-70
2022/05/11 04:38:22;;;;;;;4.55;2.80;;;13.10;99.90;;;;;;5022981;28;20486;-70
2022/05/11 04:40:48;;;;;;;6.80;3.28;;;13.10;99.90;;;;;;5005066;28;20429;-68
2022/05/11 04:43:15;;;;;;;4.55;2.72;;;13.10;99.90;;;;;;5021614;28;20022;-70
2022/05/11 04:45:44;;;;;;;13.02;3.38;;;13.10;99.90;;;;;;5021501;28;20025;-70
2022/05/11 04:48:10;;;;;;;5.47;2.58;;;13.10;99.90;;;;;;5021817;28;20056;-69
2022/05/11 04:50:39;;;;;;;6.28;3.10;;;13.10;99.90;;;;;;5022310;28;20029;-69
2022/05/11 04:53:09;;;;;;;7.10;3.15;;;13.10;99.90;;;;;;5022342;28;20478;-70
2022/05/11 04:55:35;;;;;;;8.85;3.17;;;13.10;99.90;;;;;;5021862;28;20025;-70
2022/05/11 04:58:01;;;;;;;6.60;3.17;;;13.10;99.90;;;;;;5021867;28;20033;-70
2022/05/11 05:00:27;;;;;;;6.07;3.47;;;13.20;99.90;;;;;;5022624;28;20033;-69
2022/05/11 05:02:53;;;;;;;8.63;3.40;;;13.20;99.90;;;;;;5018215;28;20085;-70
2022/05/11 05:05:19;;;;;;;7.43;3.60;;;13.20;99.90;;;;;;5022600;28;20582;-70
2022/05/11 05:07:55;;;;;;;8.15;3.60;;;13.20;99.90;;;;;;5022022;28;20089;-70
2022/05/11 05:10:21;;;;;;;7.63;3.83;;;13.30;99.90;;;;;;5021393;28;20030;-70
2022/05/11 05:12:47;;;;;;;8.07;4.05;;;13.20;99.90;;;;;;5022391;28;20501;-70
2022/05/11 05:15:15;;;;;;;6.07;3.65;;;13.30;99.90;;;;;;5022225;28;20065;-70
2022/05/11 05:17:41;;;;;;;8.30;3.00;;;13.30;99.90;;;;;;5018556;28;21079;-68
2022/05/11 05:20:07;;;;;;;9.18;3.72;;;13.30;99.90;;;;;;5021936;28;20022;-70
2022/05/11 05:22:36;;;;;;;5.93;3.25;;;13.30;99.90;;;;;;5022737;28;20102;-71
2022/05/11 05:25:04;;;;;;;13.35;4.07;;;13.40;99.90;;;;;;5021036;28;20030;-69
2022/05/11 05:27:30;;;;;;;9.07;3.67;;;13.40;99.90;;;;;;5022488;28;20041;-69
2022/05/11 05:32:43;;;;;;;8.95;3.85;;;13.50;99.90;;;;;;5019874;28;20127;-69
2022/05/11 05:35:11;;;;;;;7.70;3.65;;;13.50;99.90;;;;;;5021074;28;20029;-69
2022/05/11 05:37:38;;;;;;;8.90;3.30;;;13.50;99.90;;;;;;5020332;28;20022;-67
2022/05/11 05:40:05;;;;;;;6.15;3.15;;;13.60;99.90;;;;;;5020882;28;20021;-68
2022/05/11 05:42:31;;;;;;;5.80;3.42;;;13.70;99.90;;;;;;5021386;28;20056;-70
2022/05/11 05:44:56;;;;;;;7.00;3.65;;;13.70;99.90;;;;;;5021171;28;20026;-68
2022/05/11 05:47:22;;;;;;;10.75;3.72;;;13.80;99.90;;;;;;5003237;28;20034;-69
2022/05/11 05:49:48;;;;;;;7.93;2.70;;;13.80;99.90;;;;;;5017810;28;20089;-69
2022/05/11 05:52:17;;;;;;;7.53;3.17;;;13.90;99.90;;;;;;5016423;28;20101;-69
2022/05/11 05:54:42;;;;;;;6.95;3.65;;;14.00;99.90;;;;;;5021792;28;20030;-69
2022/05/11 05:57:09;;;;;;;5.65;2.50;;;14.00;99.90;;;;;;5023687;28;20030;-70
2022/05/11 05:59:34;;;;;;;9.52;3.30;;;14.10;99.90;;;;;;5025096;28;20025;-69
2022/05/11 06:02:00;;;;;;;10.75;3.22;;;14.10;99.90;;;;;;5024012;28;20121;-70
2022/05/11 06:04:26;;;;;;;4.43;2.78;;;14.10;99.90;;;;;;5024427;28;20053;-68
2022/05/11 06:06:52;;;;;;;11.60;4.30;;;14.20;99.90;;;;;;5024814;28;20029;-69
2022/05/11 06:09:17;;;;;;;8.93;3.67;;;14.20;99.90;;;;;;5023780;28;20026;-70
2022/05/11 06:11:43;;;;;;;8.50;4.03;;;14.20;99.90;;;;;;5025394;28;20092;-70
2022/05/11 06:14:09;;;;;;;7.95;3.75;;;14.20;99.90;;;;;;5024240;28;20097;-69
2022/05/11 06:16:35;;;;;;;12.98;5.07;;;14.20;99.90;;;;;;5025093;28;20045;-70
2022/05/11 06:19:01;;;;;;;15.13;4.95;;;14.20;99.90;;;;;;5025578;28;20044;-69
2022/05/11 06:21:27;;;;;;;8.52;4.45;;;14.20;99.90;;;;;;5025203;28;20049;-69
2022/05/11 06:23:52;;;;;;;10.38;4.30;;;14.30;99.90;;;;;;5024544;28;20049;-70
2022/05/11 06:26:18;;;;;;;11.50;3.92;;;14.30;99.90;;;;;;5025318;28;20022;-69
2022/05/11 06:28:46;;;;;;;9.95;3.97;;;14.30;99.90;;;;;;5023647;28;20029;-70
2022/05/11 06:31:14;;;;;;;17.88;5.10;;;14.30;99.90;;;;;;5024873;28;20034;-70
2022/05/11 06:33:40;;;;;;;11.00;3.67;;;14.40;99.90;;;;;;5022551;28;20036;-70
2022/05/11 06:36:08;;;;;;;9.20;4.55;;;14.40;99.90;;;;;;5021191;28;20026;-69
2022/05/11 06:38:35;;;;;;;15.40;3.95;;;14.40;99.90;;;;;;5021488;28;20037;-69
2022/05/11 06:41:16;;;;;;;21.08;4.18;;;14.40;99.90;;;;;;5025034;28;20033;-69
2022/05/11 06:43:43;;;;;;;20.08;4.22;;;14.40;99.90;;;;;;5022351;28;20052;-70
2022/05/11 06:46:08;;;;;;;7.93;4.32;;;14.50;99.90;;;;;;5022947;28;20026;-70
2022/05/11 06:48:34;;;;;;;15.70;5.68;;;14.50;99.90;;;;;;5021224;28;20084;-71
2022/05/11 06:51:00;;;;;;;20.20;6.75;;;14.50;99.90;;;;;;5022871;28;20076;-70
2022/05/11 06:53:27;;;;;;;26.83;6.38;;;14.60;99.90;;;;;;5023123;28;20034;-71
2022/05/11 07:01:21;;;;;;;10.07;5.10;;;14.70;99.90;;;;;;5022668;28;20889;-71
2022/05/11 07:03:46;;;;;;;32.80;6.55;;;14.60;99.90;;;;;;5006516;28;20050;-71
2022/05/11 07:06:12;;;;;;;18.90;6.40;;;14.70;99.90;;;;;;5022131;28;20498;-69
2022/05/11 07:08:40;;;;;;;11.23;5.18;;;14.80;99.90;;;;;;5022805;28;20078;-70
2022/05/11 07:13:53;;;;;;;16.95;6.32;;;14.80;99.90;;;;;;5023708;28;20064;-71
2022/05/11 07:16:19;;;;;;;11.48;4.80;;;14.80;99.90;;;;;;5024057;28;20041;-71
2022/05/11 07:18:45;;;;;;;15.00;5.88;;;14.90;99.90;;;;;;5024257;28;20034;-70
2022/05/11 07:21:11;;;;;;;17.00;5.97;;;14.90;99.90;;;;;;5021096;28;20026;-71
2022/05/11 07:23:37;;;;;;;17.80;6.43;;;15.00;99.90;;;;;;5023644;28;20061;-70
2022/05/11 07:26:02;;;;;;;13.15;5.30;;;15.00;99.90;;;;;;5006018;28;20032;-71
2022/05/11 07:28:29;;;;;;;12.10;6.07;;;15.10;99.90;;;;;;5022698;28;20038;-73
2022/05/11 07:30:55;;;;;;;13.65;5.80;;;15.20;99.90;;;;;;5005888;28;20026;-70
2022/05/11 07:33:21;;;;;;;14.55;6.35;;;15.30;99.90;;;;;;5023258;28;20026;-70
2022/05/11 07:35:47;;;;;;;13.35;5.70;;;15.30;99.90;;;;;;5005143;28;20037;-70
2022/05/11 07:38:17;;;;;;;10.50;4.95;;;15.30;99.90;;;;;;5024203;28;20021;-70
2022/05/11 07:40:43;;;;;;;13.95;5.45;;;15.50;99.90;;;;;;5020783;28;20112;-69
2022/05/11 07:43:10;;;;;;;12.82;6.10;;;15.50;99.90;;;;;;5005097;28;20064;-70
2022/05/11 07:45:37;;;;;;;20.70;4.97;;;15.50;99.90;;;;;;5023833;28;20056;-72
2022/05/11 07:48:03;;;;;;;12.27;6.07;;;15.60;99.90;;;;;;5023542;28;20033;-70
2022/05/11 07:50:30;;;;;;;14.00;5.47;;;15.60;99.90;;;;;;5023541;28;20022;-71
2022/05/11 07:52:57;;;;;;;12.90;5.13;;;15.70;99.90;;;;;;5023857;28;20037;-72
2022/05/11 07:55:25;;;;;;;10.07;4.45;;;15.80;99.90;;;;;;5022589;28;20037;-72
2022/05/11 08:00:37;;;;;;;7.57;3.17;;;16.00;99.90;;;;;;5023560;28;20077;-73
2022/05/11 08:03:04;;;;;;;7.28;3.35;;;16.20;99.90;;;;;;5022403;28;20703;-70
2022/05/11 08:05:32;;;;;;;4.85;2.35;;;16.20;99.90;;;;;;5023356;28;20040;-69
2022/05/11 08:08:01;;;;;;;4.60;2.55;;;16.30;99.90;;;;;;5004715;28;20502;-70
2022/05/11 08:10:34;;;;;;;6.32;2.60;;;16.50;99.90;;;;;;5022785;28;20029;-74
2022/05/11 08:13:00;;;;;;;6.40;2.40;;;16.50;99.90;;;;;;5021806;28;20046;-70
2022/05/11 08:15:28;;;;;;;3.60;1.88;;;16.60;99.90;;;;;;5023082;28;20075;-74
2022/05/11 08:17:53;;;;;;;11.00;2.47;;;16.70;99.90;;;;;;5022103;28;20072;-72
2022/05/11 08:20:23;;;;;;;5.20;2.40;;;16.70;99.90;;;;;;5003769;28;20057;-71
2022/05/11 08:22:51;;;;;;;3.40;1.63;;;16.70;99.90;;;;;;5023324;28;20386;-70
2022/05/11 08:25:20;;;;;;;3.85;2.00;;;16.90;99.90;;;;;;5021868;28;20061;-70
2022/05/11 08:27:47;;;;;;;2.45;1.60;;;17.00;99.90;;;;;;5021769;28;20049;-73
2022/05/11 08:35:49;;;;;;;6.18;2.03;;;17.10;99.90;;;;;;5021992;28;20049;-76
2022/05/11 08:38:15;;;;;;;1.77;1.65;;;17.20;99.90;;;;;;5022253;28;20021;-73
2022/05/11 08:41:00;;;;;;;4.28;1.77;;;17.10;99.90;;;;;;5003507;28;20056;-73
2022/05/11 08:43:28;;;;;;;;;;;17.30;99.90;;;;;;5022457;28;20101;-75
2022/05/11 08:46:03;;;;;;;2.45;1.48;;;17.40;99.90;;;;;;5020445;28;19971;-73
2022/05/11 08:48:47;;;;;;;2.88;1.50;;;17.50;99.90;;;;;;5022939;28;20040;-72
2022/05/11 08:51:24;;;;;;;3.72;1.55;;;17.50;99.90;;;;;;5021647;28;20099;-70
2022/05/11 08:54:03;;;;;;;5.60;2.20;;;17.50;99.90;;;;;;5020233;28;20033;-71
2022/05/11 08:56:30;;;;;;;2.95;1.55;;;17.70;99.90;;;;;;5004879;28;20026;-73
2022/05/11 08:58:58;;;;;;;3.55;1.55;;;17.90;99.90;;;;;;5022681;28;20044;-69
2022/05/11 09:01:30;;;;;;;2.03;1.40;;;17.90;99.90;;;;;;5022348;28;20049;-71
2022/05/11 09:03:58;;;;;;;6.50;1.40;;;18.00;99.90;;;;;;5022071;28;20034;-72
2022/05/11 09:06:27;;;;;;;2.42;1.35;;;18.10;99.90;;;;;;5021720;28;20022;-71
2022/05/11 09:08:55;;;;;;;3.45;1.70;;;18.10;99.90;;;;;;5020593;28;20040;-71
2022/05/11 09:11:41;;;;;;;4.65;2.03;;;18.10;99.90;;;;;;5022144;28;20033;-71
2022/05/11 09:14:07;;;;;;;2.35;1.40;;;18.20;99.90;;;;;;5020503;28;20198;-69
2022/05/11 09:16:46;;;;;;;4.00;1.70;;;18.30;99.90;;;;;;5022354;28;20014;-71
2022/05/11 09:19:24;;;;;;;1.50;1.20;;;18.20;99.90;;;;;;5021597;28;20037;-73
2022/05/11 09:22:04;;;;;;;3.10;1.90;;;18.40;99.90;;;;;;5021319;28;20451;-73
2022/05/11 09:24:36;;;;;;;5.53;1.83;;;18.40;99.90;;;;;;5004182;28;20026;-69
2022/05/11 09:27:11;;;;;;;6.30;1.67;;;18.40;99.90;;;;;;5021897;28;20014;-72
2022/05/11 09:29:41;;;;;;;3.08;1.65;;;18.40;99.90;;;;;;5007061;28;20041;-70
2022/05/11 09:32:29;;;;;;;2.50;1.77;;;18.40;99.90;;;;;;5008484;28;20061;-71
2022/05/11 09:34:54;;;;;;;4.53;2.00;;;18.40;99.90;;;;;;5008458;28;20101;-71
2022/05/11 09:37:36;;;;;;;3.72;2.00;;;18.40;99.90;;;;;;5025452;28;20030;-71
2022/05/11 09:40:16;;;;;;;6.60;2.28;;;18.40;99.90;;;;;;5022729;28;20034;-72
2022/05/11 09:42:55;;;;;;;3.63;1.80;;;18.50;99.90;;;;;;5025434;28;20037;-74
2022/05/11 09:45:44;;;;;;;4.38;2.13;;;18.60;99.90;;;;;;5025052;28;20089;-69
2022/05/11 09:48:24;;;;;;;5.30;1.75;;;18.70;99.90;;;;;;5014834;28;20037;-69
2022/05/11 09:50:53;;;;;;;3.38;1.88;;;18.80;99.90;;;;;;5025542;28;20034;-72
2022/05/11 09:53:24;;;;;;;2.92;1.77;;;18.90;99.90;;;;;;5025224;28;20022;-70
2022/05/11 09:55:51;;;;;;;4.38;1.70;;;18.90;99.90;;;;;;5026052;28;20041;-69
2022/05/11 09:58:34;;;;;;;3.40;2.08;;;19.00;99.90;;;;;;5024512;28;20029;-74
2022/05/11 10:01:10;;;;;;;3.40;2.05;;;19.20;99.90;;;;;;5007838;28;20123;-70
2022/05/11 10:03:39;;;;;;;3.20;1.90;;;19.40;99.90;;;;;;5023505;28;20045;-72
2022/05/11 10:06:07;;;;;;;5.35;2.42;;;19.60;99.90;;;;;;5006329;28;20026;-72
2022/05/11 10:08:36;;;;;;;2.58;1.70;;;19.80;99.90;;;;;;5006411;28;20026;-73
2022/05/11 10:11:23;;;;;;;4.78;1.67;;;19.80;99.90;;;;;;5024970;28;20032;-75
2022/05/11 10:22:59;;;;;;;4.97;2.35;;;20.30;99.90;;;;;;5023975;28;20056;-73
2022/05/11 10:25:35;;;;;;;5.05;2.25;;;20.40;99.90;;;;;;5024787;28;20508;-70
2022/05/11 10:28:19;;;;;;;11.10;2.35;;;20.50;99.90;;;;;;5025596;28;20021;-73
2022/05/11 10:31:06;;;;;;;5.30;1.52;;;20.40;99.90;;;;;;5024952;28;20022;-74
2022/05/11 10:34:15;;;;;;;4.50;1.80;;;20.30;99.90;;;;;;5024912;28;20038;-71
2022/05/11 10:37:01;;;;;;;3.92;1.85;;;20.20;99.90;;;;;;5022197;28;20045;-75
2022/05/11 10:39:29;;;;;;;5.00;2.05;;;20.20;99.90;;;;;;5023288;28;20037;-71
2022/05/11 10:42:09;;;;;;;2.88;1.63;;;20.10;99.90;;;;;;5007420;28;20061;-71
2022/05/11 10:44:56;;;;;;;3.50;2.08;;;20.10;99.90;;;;;;5023673;28;20029;-71
2022/05/11 10:47:42;;;;;;;4.32;2.15;;;20.20;99.90;;;;;;5024798;28;20584;-71
2022/05/11 10:50:21;;;;;;;2.70;1.67;;;20.50;99.90;;;;;;5024556;28;20053;-70
2022/05/11 10:53:01;;;;;;;4.95;2.00;;;20.60;99.90;;;;;;5024098;28;20037;-70
2022/05/11 10:55:45;;;;;;;7.60;1.85;;;20.80;99.90;;;;;;5006999;28;20052;-73
2022/05/11 10:58:17;;;;;;;2.72;1.23;;;21.00;99.90;;;;;;5023719;28;20028;-71
2022/05/11 11:00:48;;;;;;;6.53;2.08;;;21.30;99.90;;;;;;5024260;28;20028;-72
2022/05/11 11:03:48;;;;;;;3.53;1.98;;;21.60;99.90;;;;;;5023750;28;20041;-74
2022/05/11 11:09:16;;;;;;;4.45;1.45;;;21.70;99.90;;;;;;5024439;28;20064;-72
2022/05/11 11:12:22;;;;;;;5.68;1.38;;;21.50;99.90;;;;;;5022260;28;20127;-70
2022/05/11 11:14:51;;;;;;;4.72;1.77;;;21.30;99.90;;;;;;5021020;28;20037;-70
2022/05/11 11:17:23;;;;;;;3.08;1.67;;;21.00;99.90;;;;;;5022301;28;20037;-69
2022/05/11 11:19:58;;;;;;;1.98;1.45;;;20.90;99.90;;;;;;5023574;28;20056;-75
2022/05/11 11:22:24;;;;;;;3.42;1.50;;;20.80;99.90;;;;;;5023719;28;20017;-74
2022/05/11 11:25:20;;;;;;;3.10;1.08;;;21.10;99.90;;;;;;5006431;28;20041;-72
2022/05/11 11:28:11;;;;;;;11.70;1.35;;;21.20;99.90;;;;;;5003568;28;20101;-72
2022/05/11 11:31:08;;;;;;;2.60;1.23;;;21.20;99.90;;;;;;5005747;28;20026;-72
2022/05/11 11:34:04;;;;;;;2.40;1.55;;;21.30;99.90;;;;;;5016692;28;20046;-71
2022/05/11 11:36:40;;;;;;;7.72;1.30;;;21.40;99.90;;;;;;5015512;28;20030;-71
2022/05/11 11:39:10;;;;;;;2.33;1.30;;;21.80;99.90;;;;;;5021057;28;20034;-72
2022/05/11 11:41:41;;;;;;;2.00;1.13;;;22.10;99.90;;;;;;5022514;28;20052;-72
2022/05/11 11:44:35;;;;;;;3.40;1.55;;;22.40;99.90;;;;;;5023336;28;20120;-72
2022/05/11 11:47:28;;;;;;;3.15;1.45;;;22.50;99.90;;;;;;5022877;28;20026;-69
2022/05/11 11:49:55;;;;;;;8.95;1.67;;;22.60;99.90;;;;;;5023293;28;20037;-73
2022/05/11 11:52:41;;;;;;;1.83;1.02;;;22.80;99.90;;;;;;5022126;28;20034;-70
2022/05/11 11:55:27;;;;;;;2.53;1.52;;;23.10;99.90;;;;;;4998408;28;20371;-71
2022/05/11 11:58:11;;;;;;;4.40;1.10;;;23.10;99.90;;;;;;5017230;28;20034;-70
2022/05/11 12:00:46;;;;;;;8.10;1.42;;;22.90;99.90;;;;;;5020039;28;20041;-70
2022/05/11 12:03:24;;;;;;;2.55;1.33;;;22.90;99.90;;;;;;5022428;28;20057;-71
2022/05/11 12:17:36;;;;;;;3.38;1.08;;;23.40;99.90;;;;;;4961232;28;20042;-71
2022/05/11 12:20:10;;;;;;;12.00;1.27;;;23.30;99.90;;;;;;4959559;28;20113;-74
2022/05/11 12:22:40;;;;;;;1.45;1.00;;;23.10;99.90;;;;;;4998606;28;20052;-70
2022/05/11 12:25:19;;;;;;;0.80;0.70;;;22.90;99.90;;;;;;5022844;28;20021;-73
2022/05/11 12:27:46;;;;;;;13.13;1.58;;;23.20;99.90;;;;;;5020213;28;20113;-70
2022/05/11 12:30:42;;;;;;;4.13;0.95;;;23.50;99.90;;;;;;5022256;28;20034;-69
2022/05/11 12:33:08;;;;;;;1.92;1.23;;;23.90;99.90;;;;;;5010657;28;20061;-71
2022/05/11 12:35:41;;;;;;;2.03;0.75;;;24.10;99.90;;;;;;5022704;28;20030;-73
2022/05/11 12:38:08;;;;;;;4.55;0.93;;;24.20;99.90;;;;;;5022592;28;20029;-74
2022/05/11 12:40:43;;;;;;;3.88;1.13;;;24.50;99.90;;;;;;5022588;28;20018;-71
2022/05/11 12:43:30;;;;;;;4.90;1.23;;;24.70;99.90;;;;;;5022644;28;20033;-72
2022/05/11 12:46:03;;;;;;;0.73;0.55;;;24.70;99.90;;;;;;5022949;28;20030;-72
2022/05/11 12:48:36;;;;;;;1.90;0.80;;;24.90;99.90;;;;;;5004252;28;20038;-71
2022/05/11 12:51:16;;;;;;;0.85;0.80;;;24.90;99.90;;;;;;5004545;28;20041;-73
2022/05/11 12:53:54;;;;;;;1.25;0.77;;;25.00;99.90;;;;;;5022730;28;20098;-73
2022/05/11 12:56:23;;;;;;;5.60;1.10;;;25.00;99.90;;;;;;5022417;28;20026;-71
2022/05/11 12:58:57;;;;;;;3.33;1.10;;;25.00;99.90;;;;;;5022310;28;20029;-67
2022/05/11 13:01:25;;;;;;;3.53;1.05;;;25.00;99.90;;;;;;5022261;28;20089;-70
2022/05/11 13:03:58;;;;;;;3.13;1.02;;;25.10;99.90;;;;;;5023705;28;20058;-73
2022/05/11 13:06:35;;;;;;;5.50;0.95;;;25.30;99.90;;;;;;5026787;28;20034;-70
2022/05/11 13:09:16;;;;;;;1.15;0.82;;;25.50;99.90;;;;;;5026815;28;20038;-75
2022/05/11 13:11:42;;;;;;;3.03;1.05;;;25.60;99.90;;;;;;5026435;28;20116;-72
2022/05/11 13:14:16;;;;;;;13.25;1.42;;;25.70;99.90;;;;;;5026506;28;20018;-73
2022/05/11 13:16:47;;;;;;;1.80;0.68;;;25.80;99.90;;;;;;5026785;28;20030;-71
2022/05/11 13:19:13;;;;;;;1.20;0.77;;;25.90;99.90;;;;;;5008608;28;20030;-71
2022/05/11 13:21:38;;;;;;;1.95;0.82;;;26.00;99.90;;;;;;5026557;28;20049;-73
2022/05/11 13:24:07;;;;;;;3.13;0.93;;;26.10;99.90;;;;;;5026615;28;20037;-71
2022/05/11 13:26:36;;;;;;;3.90;1.10;;;26.30;99.90;;;;;;5008504;28;20045;-73
2022/05/11 13:29:16;;;;;;;1.27;0.85;;;26.50;99.90;;;;;;5008706;28;20018;-73
2022/05/11 13:31:42;;;;;;;5.40;0.93;;;26.50;97.30;;;;;;5025983;28;20060;-69
2022/05/11 13:34:33;;;;;;;1.40;0.82;;;26.50;99.50;;;;;;5025792;28;20033;-72
2022/05/11 13:36:59;;;;;;;6.07;0.82;;;26.70;98.20;;;;;;5026473;28;20040;-68
2022/05/11 13:39:30;;;;;;;2.33;0.88;;;26.80;97.40;;;;;;5025970;28;20029;-73
2022/05/11 13:42:03;;;;;;;1.35;0.52;;;26.80;97.20;;;;;;5024793;28;20038;-71
2022/05/11 13:44:36;;;;;;;2.60;0.82;;;26.70;95.80;;;;;;5004430;28;20026;-75
2022/05/11 13:50:28;;;;;;;2.85;0.77;;;26.80;94.00;;;;;;5025653;28;20096;-69
2022/05/11 13:53:02;;;;;;;0.65;0.50;;;26.90;96.30;;;;;;5007824;28;20037;-74
2022/05/11 13:55:37;;;;;;;7.15;0.80;;;27.20;96.20;;;;;;5025207;28;20030;-74